»·PEaware :: N54JR KMRY-KLAS

N54JR :: KMRY-KLAS

FLIGHT INFORMATION

Flight Status: Arrived
Operator: Privately registered:
United States
More flights under this callsign
Pilot: John B. (20917)
Aircraft: BEECH AIRCRAFT BARON
(BE58)
More flights by this aircraft type
Origin: KMRY Monterey Peninsula
United States
Destination: KLAS McCarran Intl
United States
More flights between these airports :: More routes between these airports
Route: +FRA080015 BTY V105 LAS
File this flight plan on PilotEdge
Remarks: +CW /
Altitude:
(Current/Filed)
15,000ft
Speed:
(Current/Filed)
200kts
Departed: 28-Dec-19 01:38 PM
Arrived: 28-Dec-19 03:33 PM
Distance/Time
Traveled:
324nm/1:54
Distance/Time
To Go:
Arrived

Flight Plot

Page will automatically refresh every two minutes.

Flight plan parsing failed; only flown route is shown


Map Options




Map Legend


Flown Route
Filed Route
Departure Airport
Arrival Airport
Navaid (VOR, NDB)
Fix

Horizontal Profiles

Position Reports

Time Latitude Longitude Heading Altitude Ground
Speed
28-Dec-19 13:21 36.587198 -121.849467 232 167ft 0kts
28-Dec-19 13:22 36.587198 -121.849467 232 167ft 0kts
28-Dec-19 13:23 36.587198 -121.849467 232 167ft 0kts
28-Dec-19 13:24 36.587198 -121.849467 232 167ft 0kts
28-Dec-19 13:25 36.587198 -121.849467 232 167ft 0kts
28-Dec-19 13:26 36.587198 -121.849467 232 167ft 0kts
28-Dec-19 13:27 36.587372 -121.849489 115 166ft 7kts
28-Dec-19 13:28 36.587045 -121.848531 125 172ft 0kts
28-Dec-19 13:29 36.586165 -121.846022 86 186ft 16kts
28-Dec-19 13:30 36.584511 -121.839873 114 217ft 23kts
28-Dec-19 13:31 36.582806 -121.834746 102 230ft 0kts
28-Dec-19 13:32 36.582806 -121.834746 102 230ft 0kts
28-Dec-19 13:33 36.582806 -121.834746 102 230ft 0kts
28-Dec-19 13:34 36.582806 -121.834746 102 230ft 0kts
28-Dec-19 13:35 36.582806 -121.834746 102 230ft 0kts
28-Dec-19 13:36 36.584832 -121.834144 209 230ft 5kts
28-Dec-19 13:37 36.585306 -121.839341 293 222ft 104kts
28-Dec-19 13:38 36.606958 -121.865473 19 1984ft 118kts
28-Dec-19 13:39 36.619898 -121.828776 72 3721ft 125kts
28-Dec-19 13:40 36.628251 -121.787119 77 5561ft 127kts
28-Dec-19 13:41 36.636787 -121.745321 80 7312ft 124kts
28-Dec-19 13:42 36.637894 -121.693040 94 7335ft 203kts
28-Dec-19 13:43 36.660483 -121.644825 48 7383ft 182kts
28-Dec-19 13:44 36.665662 -121.591918 73 8773ft 104kts
28-Dec-19 13:45 36.671073 -121.557431 76 9638ft 103kts
28-Dec-19 13:46 36.687653 -121.522704 78 10282ft 107kts
28-Dec-19 13:47 36.671939 -121.485007 73 10392ft 181kts
28-Dec-19 13:48 36.678791 -121.441248 83 10144ft 158kts
28-Dec-19 13:49 36.678791 -121.441248 83 10144ft 158kts
28-Dec-19 13:50 36.661984 -121.412615 132 11127ft 106kts
28-Dec-19 13:51 36.650353 -121.373855 86 11924ft 145kts
28-Dec-19 13:52 36.656867 -121.321153 84 13118ft 161kts
28-Dec-19 13:53 36.663079 -121.264854 84 14341ft 165kts
28-Dec-19 13:54 36.669469 -121.206719 82 15031ft 187kts
28-Dec-19 13:55 36.677058 -121.137550 80 15036ft 210kts
28-Dec-19 13:56 36.684932 -121.065304 81 15025ft 210kts
28-Dec-19 13:57 36.692775 -120.992775 82 15020ft 212kts
28-Dec-19 13:58 36.700610 -120.919699 83 15037ft 212kts
28-Dec-19 13:59 36.708420 -120.846586 83 15044ft 212kts
28-Dec-19 14:00 36.717166 -120.773487 72 15014ft 213kts
28-Dec-19 14:01 36.732112 -120.702188 76 15040ft 214kts
28-Dec-19 14:02 36.747456 -120.628157 76 14687ft 220kts
28-Dec-19 14:03 36.762734 -120.555106 71 14688ft 215kts
28-Dec-19 14:04 36.777849 -120.482933 72 14690ft 214kts
28-Dec-19 14:05 36.792703 -120.411258 76 14704ft 216kts
28-Dec-19 14:06 36.807739 -120.338481 73 14700ft 216kts
28-Dec-19 14:07 36.822772 -120.265808 76 14699ft 215kts
28-Dec-19 14:08 36.837710 -120.193417 76 14695ft 215kts
28-Dec-19 14:09 36.852565 -120.121390 75 14704ft 214kts
28-Dec-19 14:10 36.867384 -120.049050 76 14701ft 215kts
28-Dec-19 14:11 36.882163 -119.976685 75 14695ft 215kts
28-Dec-19 14:12 36.896953 -119.904126 76 14700ft 215kts
28-Dec-19 14:13 36.918557 -119.834508 67 14704ft 215kts
28-Dec-19 14:14 36.940930 -119.764952 69 14706ft 216kts
28-Dec-19 14:15 36.963696 -119.695212 67 14692ft 215kts
28-Dec-19 14:16 36.986251 -119.626004 66 14696ft 215kts
28-Dec-19 14:17 37.008923 -119.556288 69 14700ft 216kts
28-Dec-19 14:18 37.031515 -119.486897 67 14706ft 213kts
28-Dec-19 14:19 37.053627 -119.418286 70 14695ft 214kts
28-Dec-19 14:20 37.076009 -119.348824 69 14706ft 215kts
28-Dec-19 14:21 37.098383 -119.279420 70 14700ft 215kts
28-Dec-19 14:22 37.090603 -119.206257 96 14688ft 214kts
28-Dec-19 14:23 37.081611 -119.132389 99 14712ft 216kts
28-Dec-19 14:24 37.073426 -119.058170 96 14691ft 215kts
28-Dec-19 14:25 37.065418 -118.984186 99 14684ft 214kts
28-Dec-19 14:26 37.057355 -118.910104 99 14695ft 215kts
28-Dec-19 14:28 37.049317 -118.836538 98 14690ft 213kts
28-Dec-19 14:29 37.041228 -118.763066 96 14691ft 214kts
28-Dec-19 14:30 37.033060 -118.689201 98 14723ft 213kts
28-Dec-19 14:31 37.024853 -118.615271 94 14687ft 214kts
28-Dec-19 14:32 37.016585 -118.541426 99 14695ft 213kts
28-Dec-19 14:33 37.008695 -118.471423 95 15431ft 189kts
28-Dec-19 14:34 37.001952 -118.412324 98 16712ft 164kts
28-Dec-19 14:35 36.994680 -118.348687 97 16797ft 200kts
28-Dec-19 14:36 36.986548 -118.277353 96 16799ft 210kts
28-Dec-19 14:37 36.978167 -118.204560 98 16784ft 213kts
28-Dec-19 14:38 36.969680 -118.131092 97 16798ft 213kts
28-Dec-19 14:39 36.961168 -118.057629 100 16787ft 213kts
28-Dec-19 14:40 36.952533 -117.984007 94 16783ft 213kts
28-Dec-19 14:41 36.943894 -117.910562 97 16775ft 214kts
28-Dec-19 14:42 36.935245 -117.837088 96 16797ft 214kts
28-Dec-19 14:43 36.926510 -117.763582 99 16789ft 214kts
28-Dec-19 14:44 36.917723 -117.689826 98 16789ft 213kts
28-Dec-19 14:44 36.910423 -117.628990 97 16797ft 213kts
28-Dec-19 14:46 36.900117 -117.543383 99 16794ft 213kts
28-Dec-19 14:47 36.891222 -117.470093 94 16798ft 213kts
28-Dec-19 14:47 36.883735 -117.409333 100 16773ft 215kts
28-Dec-19 14:48 36.874694 -117.335915 98 16780ft 214kts
28-Dec-19 14:50 36.864134 -117.250424 96 16778ft 214kts
28-Dec-19 14:50 36.856610 -117.189478 95 16767ft 213kts
28-Dec-19 14:51 36.847533 -117.116508 99 16778ft 212kts
28-Dec-19 14:53 36.836855 -117.031254 95 16783ft 213kts
28-Dec-19 14:53 36.829207 -116.970245 96 16788ft 214kts
28-Dec-19 14:54 36.819905 -116.897245 100 16772ft 212kts
28-Dec-19 14:55 36.810505 -116.824082 97 16771ft 213kts
28-Dec-19 14:56 36.798145 -116.752787 129 16770ft 211kts
28-Dec-19 14:57 36.754183 -116.703685 138 16779ft 214kts
28-Dec-19 14:58 36.707011 -116.657547 143 16395ft 227kts
28-Dec-19 14:59 36.656422 -116.608682 139 14904ft 228kts
28-Dec-19 15:00 36.607050 -116.561093 141 13788ft 216kts
28-Dec-19 15:01 36.559267 -116.515075 142 13768ft 216kts
28-Dec-19 15:02 36.511442 -116.469200 143 13765ft 217kts
28-Dec-19 15:03 36.463835 -116.423685 140 13776ft 217kts
28-Dec-19 15:04 36.415962 -116.377922 141 13782ft 218kts
28-Dec-19 15:05 36.368041 -116.332119 141 13769ft 217kts
28-Dec-19 15:06 36.320665 -116.286930 143 13781ft 217kts
28-Dec-19 15:07 36.272795 -116.241343 141 13780ft 216kts
28-Dec-19 15:08 36.224969 -116.195848 143 13779ft 216kts
28-Dec-19 15:09 36.177151 -116.150412 141 13782ft 217kts
28-Dec-19 15:10 36.129363 -116.105105 143 13785ft 215kts
28-Dec-19 15:11 36.081658 -116.059937 139 13769ft 217kts
28-Dec-19 15:12 36.037952 -116.010129 110 13785ft 215kts
28-Dec-19 15:13 36.035813 -115.936663 90 13779ft 216kts
28-Dec-19 15:14 36.038521 -115.861060 87 13253ft 234kts
28-Dec-19 15:15 36.043007 -115.783944 83 11622ft 215kts
28-Dec-19 15:16 36.047302 -115.710995 85 10795ft 216kts
28-Dec-19 15:17 36.018887 -115.652875 131 10763ft 203kts
28-Dec-19 15:18 35.979232 -115.604675 137 10785ft 198kts
28-Dec-19 15:19 35.939448 -115.555726 133 10797ft 204kts
28-Dec-19 15:20 35.903065 -115.501871 121 10617ft 212kts
28-Dec-19 15:21 35.870339 -115.440740 121 8882ft 206kts
28-Dec-19 15:22 35.844268 -115.388464 117 8136ft 167kts
28-Dec-19 15:23 35.842724 -115.337762 45 6963ft 177kts
28-Dec-19 15:24 35.869074 -115.296106 42 6788ft 154kts
28-Dec-19 15:25 35.900847 -115.271184 32 6742ft 105kts
28-Dec-19 15:26 35.927990 -115.254902 25 5950ft 126kts
28-Dec-19 15:27 35.961335 -115.235720 22 4624ft 130kts
28-Dec-19 15:28 35.991179 -115.218670 23 4196ft 118kts
28-Dec-19 15:29 36.022154 -115.200853 26 3500ft 126kts
28-Dec-19 15:30 36.053561 -115.182864 27 2768ft 116kts
28-Dec-19 15:31 36.079972 -115.167831 29 2143ft 80kts
28-Dec-19 15:32 36.091992 -115.160859 9 2090ft 26kts
28-Dec-19 15:33 36.095843 -115.160901 34 2081ft 24kts
28-Dec-19 15:34 36.097193 -115.163307 254 2089ft 0kts
28-Dec-19 15:35 36.097193 -115.163307 254 2089ft 0kts
28-Dec-19 15:36 36.097193 -115.163307 254 2089ft 0kts
28-Dec-19 15:37 36.097193 -115.163307 254 2089ft 0kts
28-Dec-19 15:38 36.097193 -115.163307 254 2089ft 0kts
28-Dec-19 15:39 36.097193 -115.163307 254 2089ft 0kts
28-Dec-19 15:40 36.097193 -115.163307 254 2089ft 0kts
28-Dec-19 15:41 36.097193 -115.163307 254 2089ft 0kts
28-Dec-19 15:42 36.097193 -115.163307 254 2089ft 0kts
28-Dec-19 15:43 36.097193 -115.163307 254 2089ft 0kts
28-Dec-19 15:44 36.097193 -115.163307 254 2089ft 0kts
28-Dec-19 15:45 36.097193 -115.163307 254 2089ft 0kts
28-Dec-19 15:46 36.097193 -115.163307 254 2089ft 0kts

Navigation Log

Ident Type
Flight plan parsing failed, navigation log unavailable